• Join FlightAware (Why Join?)
  • Login
  • US Flag GB Flag 
22:37 EDT


 

Airport Tracker/Info


-or-


 

Live Flight TrackerFlight Track Log ✈ N23123 ✈ 02-Oct-2013 ✈ KBGM - KITH

Flight Track Log - Related Links

Times and Time Zones

All times are in EDT time to prevent confusion due to time zone crossing. See the N23123 flight status page for this flight to view local times or setup timezone preferences in your user account.

Time Position Orientation Groundspeed Altitude Reporting Facility
EDT Latitude Longitude Course Direction KTS MPH feet Rate Location/Type
09:09 42.5490 -75.8753 10° North  Level FlightAware Approximate
09:10 42.5833 -75.8667 10° North  Level FlightAware Approximate
09:11 42.6175 -75.8582 10° North  Level FlightAware Approximate
09:12 42.6518 -75.8496 10° North  Level FlightAware Approximate
09:13 42.6860 -75.8411 10° North  Level FlightAware Approximate
09:14 42.7203 -75.8325 10° North  Level FlightAware Approximate
09:15 42.7545 -75.8239 10° North  Level FlightAware Approximate
09:16 42.7804 -75.8230 238° Southwest  Level FlightAware Approximate
09:17 42.7620 -75.8633 238° Southwest  Level FlightAware Approximate
09:18 42.7435 -75.9035 238° Southwest  Level FlightAware Approximate
09:19 42.7250 -75.9436 238° Southwest  Level FlightAware Approximate
09:20 42.7065 -75.9838 238° Southwest  Level FlightAware Approximate
09:21 42.6880 -76.0239 238° Southwest  Level FlightAware Approximate
09:22 42.6695 -76.0640 238° Southwest  Level FlightAware Approximate
09:23 42.6510 -76.1041 238° Southwest  Level FlightAware Approximate
09:24 42.6324 -76.1442 238° Southwest  Level FlightAware Approximate
09:24 42.7750 -75.8347 232° Southwest 82 94 2,600  Level Boston Center
09:24 42.7897 -75.8242 28° Northeast 85 98 2,700  Climbing Boston Center
09:25 42.6139 -76.1842 238° Southwest  Level FlightAware Approximate
09:25 42.7892 -75.8467 268° West 73 84 2,600  Level Boston Center
09:26 42.5953 -76.2243 238° Southwest  Level FlightAware Approximate
09:26 42.7800 -75.8744 246° West 71 82 2,600  Level Boston Center
09:27 42.5757 -76.2633 232° Southwest  Level FlightAware Approximate
09:27 42.7689 -75.8967 236° Southwest 70 81 2,700  Level Boston Center
09:28 42.5544 -76.3007 232° Southwest  Level FlightAware Approximate
09:28 42.7561 -75.9072 211° Southwest 76 87 2,600  Level Boston Center
09:29 42.5331 -76.3380 232° Southwest  Level FlightAware Approximate
09:30 42.7561 -75.9072 304° West 76 87 2,600  Level Boston Center
09:31 42.7186 -75.9758 229° Southwest 69 79 2,700  Climbing Boston Center
09:32 42.7136 -75.9953 251° West 68 78 2,600  Descending Boston Center
09:33 42.7047 -76.0203 244° Southwest 63 72 2,700 60 Climbing Boston Center
09:34 42.6958 -76.0367 234° Southwest 61 70 2,800 60 Climbing Boston Center